Time;durP1;ratioP1;P1;durP2;ratioP2;P2;SDS_P1;SDS_P2;PMS_P1;PMS_P2;Temp;Humidity;BMP_temperature;BMP_pressure;BME280_temperature;BME280_humidity;BME280_pressure;Samples;Min_cycle;Max_cycle;Signal;HPM_P1;HPM_P2
2023/03/17 00:00:16;;;;;;;5.83;5.60;;;;;;;5.65;100.00;57622.31;5156636;27;20193;-61
2023/03/17 00:02:44;;;;;;;5.63;5.23;;;;;;;5.57;100.00;56325.16;5156823;27;20202;-60
2023/03/17 00:05:21;;;;;;;5.47;5.27;;;;;;;5.71;100.00;56983.78;5156435;27;20178;-61
2023/03/17 00:07:50;;;;;;;5.93;5.63;;;;;;;5.75;100.00;57632.84;5156346;27;20232;-60
2023/03/17 00:10:20;;;;;;;5.23;5.03;;;;;;;5.69;100.00;58594.06;5156323;27;20186;-60
2023/03/17 00:12:49;;;;;;;5.67;5.37;;;;;;;5.74;100.00;61827.75;5156575;27;20208;-60
2023/03/17 00:15:17;;;;;;;5.20;5.00;;;;;;;5.61;100.00;61490.94;5156294;27;20209;-60
2023/03/17 00:17:45;;;;;;;5.77;5.47;;;;;;;5.47;100.00;57927.22;5156106;27;20225;-59
2023/03/17 00:20:21;;;;;;;6.17;5.77;;;;;;;5.56;100.00;54068.03;5156120;27;20182;-61
2023/03/17 00:22:49;;;;;;;6.03;5.63;;;;;;;5.61;100.00;53751.06;5156051;27;20182;-61
2023/03/17 00:25:23;;;;;;;5.70;5.40;;;;;;;5.62;100.00;56330.06;5156028;27;20178;-59
2023/03/17 00:27:50;;;;;;;6.10;5.70;;;;;;;5.80;100.00;56347.22;5155943;27;20222;-59
2023/03/17 00:30:18;;;;;;;5.80;5.60;;;;;;;5.81;100.00;62481.31;5156236;27;20233;-59
2023/03/17 00:32:45;;;;;;;6.27;5.83;;;;;;;5.80;100.00;63125.88;5155925;27;20212;-59
2023/03/17 00:35:17;;;;;;;6.30;5.90;;;;;;;5.80;100.00;63126.41;5156049;27;20637;-61
2023/03/17 00:37:45;;;;;;;5.83;5.63;;;;;;;5.76;100.00;66677.94;5155842;27;20186;-59
2023/03/17 00:40:19;;;;;;;6.00;5.70;;;;;;;5.72;100.00;66349.94;5156089;27;20687;-60
2023/03/17 00:42:46;;;;;;;6.27;5.70;;;;;;;5.76;100.00;70237.56;5155694;27;20192;-59
2023/03/17 00:45:13;;;;;;;5.37;5.07;;;;;;;5.74;100.00;71529.78;5155308;27;20198;-59
2023/03/17 00:47:40;;;;;;;5.37;5.17;;;;;;;5.73;100.00;71852.47;5155975;27;20564;-59
2023/03/17 00:50:17;;;;;;;5.30;5.00;;;;;;;5.75;100.00;75419.84;5155998;27;20667;-59
2023/03/17 00:52:45;;;;;;;5.10;4.90;;;;;;;5.55;100.00;79611.03;5155561;27;20193;-60
2023/03/17 00:55:14;;;;;;;5.03;4.83;;;;;;;5.55;100.00;82208.38;5155749;27;20202;-60
2023/03/17 00:57:42;;;;;;;4.70;4.50;;;;;;;5.82;100.00;80297.44;5155499;27;20178;-60
2023/03/17 01:00:20;;;;;;;5.30;5.00;;;;;;;5.83;100.00;81923.00;5155340;27;20186;-60
2023/03/17 01:02:48;;;;;;;5.03;4.83;;;;;;;5.69;100.00;81253.69;5155374;27;20196;-59
2023/03/17 01:05:16;;;;;;;4.83;4.53;;;;;;;5.66;100.00;87425.44;5155324;27;20189;-60
2023/03/17 01:07:47;;;;;;;4.53;4.33;;;;;;;5.91;100.00;92674.53;5155277;27;20185;-61
2023/03/17 01:10:18;;;;;;;4.50;4.30;;;;;;;5.72;100.00;93621.25;5155460;27;20204;-60
2023/03/17 01:12:48;;;;;;;4.43;4.23;;;;;;;5.84;100.00;104089.72;5155349;27;20185;-59
2023/03/17 01:15:15;;;;;;;4.33;4.03;;;;;;;5.77;100.00;103422.50;5155371;27;20557;-60
2023/03/17 01:17:43;;;;;;;4.43;4.13;;;;;;;5.80;100.00;102774.91;5154989;27;20229;-59
2023/03/17 01:20:16;;;;;;;4.40;4.20;;;;;;;5.75;100.00;108653.09;5155232;27;20675;-60
2023/03/17 01:22:44;;;;;;;3.77;3.57;;;;;;;5.69;100.00;114211.22;5154951;27;20186;-60
2023/03/17 01:25:12;;;;;;;4.10;3.90;;;;;;;5.69;100.00;123404.59;5155193;27;20182;-61
2023/03/17 01:27:40;;;;;;;3.67;3.57;;;;;;;5.73;100.00;126371.97;5154842;27;20182;-60
2023/03/17 01:30:24;;;;;;;3.50;3.40;;;;;;;5.76;100.00;126049.41;5155040;27;20178;-61
2023/03/17 01:32:51;;;;;;;3.40;3.30;;;;;;;5.72;100.00;134188.63;5155065;27;20612;-61
2023/03/17 01:35:18;;;;;;;3.60;3.40;;;;;;;5.87;100.00;140189.56;5154626;27;20209;-59
2023/03/17 01:37:46;;;;;;;3.67;3.50;;;;;;;5.83;100.00;142628.75;5154939;27;20621;-60
2023/03/17 01:40:17;;;;;;;3.90;3.70;;;;;;;5.72;100.00;146540.88;5154568;27;20186;-60
2023/03/17 01:42:48;;;;;;;4.17;4.07;;;;;;;5.84;100.00;144416.38;5154500;27;20189;-58
2023/03/17 01:45:52;;;;;;;4.23;4.03;;;;;;;5.85;100.00;142715.09;5154793;27;20177;-61
2023/03/17 01:48:22;;;;;;;4.13;4.00;;;;;;;5.72;100.00;139325.44;5154206;27;20186;-60
2023/03/17 01:50:50;;;;;;;4.77;4.47;;;;;;;5.87;100.00;131342.19;5154511;27;20186;-60
2023/03/17 01:53:20;;;;;;;4.83;4.63;;;;;;;5.82;100.00;129684.75;5154610;27;20209;-60
2023/03/17 01:55:49;;;;;;;4.90;4.70;;;;;;;5.79;100.00;125068.91;5154140;27;20205;-59
2023/03/17 01:58:18;;;;;;;4.60;4.40;;;;;;;5.72;100.00;114546.00;5154231;27;20232;-59
2023/03/17 02:00:46;;;;;;;4.97;4.67;;;;;;;5.79;100.00;109316.31;5154483;27;20629;-60
2023/03/17 02:03:13;;;;;;;4.90;4.70;;;;;;;5.83;100.00;110305.44;5136086;27;20212;-60
2023/03/17 02:05:41;;;;;;;4.70;4.50;;;;;;;5.81;100.00;109319.13;5154259;27;20198;-61
2023/03/17 02:08:11;;;;;;;4.93;4.63;;;;;;;5.75;100.00;110618.88;5153858;27;20178;-60
2023/03/17 02:10:39;;;;;;;4.80;4.50;;;;;;;5.52;100.00;109593.16;5154299;27;20183;-61
2023/03/17 02:13:09;;;;;;;4.80;4.60;;;;;;;5.79;100.00;117840.78;5153421;27;20182;-62
2023/03/17 02:15:37;;;;;;;4.33;4.13;;;;;;;5.71;100.00;120451.41;5153889;27;20198;-60
2023/03/17 02:18:05;;;;;;;4.60;4.30;;;;;;;5.78;100.00;118167.03;5153743;27;20233;-60
2023/03/17 02:21:05;;;;;;;4.40;4.20;;;;;;;5.79;100.00;118825.72;5154123;27;20189;-59
2023/03/17 02:23:34;;;;;;;4.23;4.03;;;;;;;5.67;100.00;124057.88;5097930;27;20204;-61
2023/03/17 02:26:04;;;;;;;4.50;4.30;;;;;;;5.75;100.00;117175.31;5153726;27;20186;-61
2023/03/17 02:28:31;;;;;;;4.53;4.33;;;;;;;5.59;100.00;122397.66;5153878;27;20185;-60
2023/03/17 02:30:58;;;;;;;4.93;4.63;;;;;;;5.70;100.00;119792.47;5153684;27;20181;-60
2023/03/17 02:33:26;;;;;;;3.97;3.77;;;;;;;5.71;100.00;122421.69;5154046;27;20182;-60
2023/03/17 02:35:53;;;;;;;6.63;4.27;;;;;;;5.68;100.00;123730.19;5153427;27;20296;-61
2023/03/17 02:38:20;;;;;;;4.40;4.10;;;;;;;5.71;100.00;126368.72;5153846;27;20193;-60
2023/03/17 02:40:48;;;;;;;4.73;4.40;;;;;;;5.75;100.00;126706.41;5153665;27;20182;-60
2023/03/17 02:43:15;;;;;;;4.57;4.13;;;;;;;5.73;100.00;130323.53;5153774;27;20569;-60
2023/03/17 02:45:42;;;;;;;4.07;3.87;;;;;;;5.70;100.00;134409.56;5153638;27;20183;-60
2023/03/17 02:48:09;;;;;;;4.20;4.00;;;;;;;5.72;100.00;138849.38;5153725;27;20182;-59
2023/03/17 02:50:36;;;;;;;4.10;3.90;;;;;;;5.68;100.00;141089.81;5153398;27;20186;-61
2023/03/17 02:53:03;;;;;;;4.07;3.87;;;;;;;5.74;100.00;147446.88;5153275;27;20178;-60
2023/03/17 02:55:31;;;;;;;4.23;4.03;;;;;;;5.74;100.00;147493.41;5153541;27;20675;-59
2023/03/17 02:58:01;;;;;;;3.97;3.77;;;;;;;5.72;100.00;147488.41;5153611;27;20207;-60
2023/03/17 03:00:28;;;;;;;5.10;3.93;;;;;;;5.65;100.00;147470.75;5153214;27;20239;-60
2023/03/17 03:02:55;;;;;;;4.03;3.83;;;;;;;5.60;100.00;147458.16;5153461;27;20193;-60
2023/03/17 03:05:22;;;;;;;3.73;3.40;;;;;;;5.64;100.00;147467.00;5153493;27;20186;-60
2023/03/17 03:07:50;;;;;;;4.13;3.83;;;;;;;5.68;100.00;147477.06;5153156;27;20186;-59
2023/03/17 03:10:17;;;;;;;4.20;3.90;;;;;;;5.66;100.00;147472.00;5153033;27;20273;-59
2023/03/17 03:12:44;;;;;;;4.10;3.80;;;;;;;5.68;100.00;147477.06;5153156;27;20276;-60
2023/03/17 03:15:13;;;;;;;4.20;3.93;;;;;;;5.70;100.00;147483.34;5153121;27;20202;-61
2023/03/17 03:17:40;;;;;;;3.40;3.30;;;;;;;5.50;100.00;147434.28;5153081;27;20233;-60
2023/03/17 03:20:10;;;;;;;4.03;3.83;;;;;;;5.61;100.00;147460.69;5153044;27;20182;-60
2023/03/17 03:22:37;;;;;;;3.67;3.37;;;;;;;5.65;100.00;147470.75;5153199;27;20194;-60
2023/03/17 03:25:06;;;;;;;3.70;3.50;;;;;;;5.65;100.00;147470.75;5156310;27;20217;-61
2023/03/17 03:27:33;;;;;;;3.63;3.53;;;;;;;5.44;100.00;147417.88;5157197;27;20185;-60
2023/03/17 03:30:00;;;;;;;4.13;3.93;;;;;;;5.52;100.00;147438.00;5157483;27;20625;-60
2023/03/17 03:32:28;;;;;;;3.80;3.60;;;;;;;5.65;100.00;147469.47;5157103;27;20250;-63
2023/03/17 03:34:55;;;;;;;3.93;3.77;;;;;;;5.58;100.00;147453.13;5157343;27;20552;-59
2023/03/17 03:37:22;;;;;;;4.07;3.70;;;;;;;5.57;100.00;147450.59;5157139;27;20181;-60
2023/03/17 03:39:50;;;;;;;3.87;3.67;;;;;;;5.56;100.00;147448.06;5157028;27;20182;-60
2023/03/17 03:42:17;;;;;;;3.90;3.70;;;;;;;5.59;100.00;147455.66;5157156;27;20666;-60
2023/03/17 03:44:44;;;;;;;3.70;3.50;;;;;;;5.62;100.00;147463.22;5156951;27;20186;-60
2023/03/17 03:47:11;;;;;;;3.83;3.63;;;;;;;5.51;100.00;147436.78;5157352;27;20182;-59
2023/03/17 03:49:39;;;;;;;3.70;3.50;;;;;;;5.46;100.00;147422.94;5157450;27;20186;-59
2023/03/17 03:52:06;;;;;;;4.80;3.57;;;;;;;5.67;100.00;147475.81;5157041;27;20226;-60
2023/03/17 03:54:33;;;;;;;3.87;3.57;;;;;;;5.59;100.00;147455.66;5157666;27;20556;-60
2023/03/17 03:57:00;;;;;;;3.73;3.53;;;;;;;5.60;100.00;147458.16;5157204;27;20564;-60
2023/03/17 03:59:28;;;;;;;3.40;3.27;;;;;;;5.63;100.00;147465.75;5156984;27;20629;-59
2023/03/17 04:01:56;;;;;;;3.90;3.60;;;;;;;5.57;100.00;147450.59;5156670;27;20185;-60
2023/03/17 04:04:23;;;;;;;3.40;3.30;;;;;;;5.43;100.00;147415.41;5157037;27;20198;-62
2023/03/17 04:06:51;;;;;;;3.73;3.53;;;;;;;5.45;100.00;147420.41;5156758;27;20281;-60
2023/03/17 04:09:18;;;;;;;3.50;3.33;;;;;;;5.55;100.00;147445.59;5156383;27;20186;-61
2023/03/17 04:11:48;;;;;;;3.37;3.17;;;;;;;5.53;100.00;147441.81;5156702;27;20212;-61
2023/03/17 04:14:14;;;;;;;3.87;3.57;;;;;;;5.50;100.00;147433.00;5156378;27;20190;-61
2023/03/17 04:16:41;;;;;;;3.30;3.20;;;;;;;5.25;100.00;147371.34;5155847;27;20238;-59
2023/03/17 04:19:08;;;;;;;3.60;3.40;;;;;;;5.34;100.00;147394.00;5154900;27;20201;-61
2023/03/17 04:21:35;;;;;;;3.20;3.10;;;;;;;5.48;100.00;147427.94;5155384;27;20631;-60
2023/03/17 04:24:06;;;;;;;3.60;3.40;;;;;;;5.35;100.00;147396.47;5136940;27;20633;-61
2023/03/17 04:26:33;;;;;;;3.00;2.80;;;;;;;5.41;100.00;147410.34;5155200;27;20589;-61
2023/03/17 04:29:00;;;;;;;3.33;3.10;;;;;;;5.44;100.00;147419.13;5155103;27;20470;-60
2023/03/17 04:31:29;;;;;;;3.20;3.00;;;;;;;5.38;100.00;147402.81;5155237;27;20197;-59
2023/03/17 04:33:56;;;;;;;3.30;3.20;;;;;;;5.46;100.00;147422.94;5154752;27;20197;-61
2023/03/17 04:36:23;;;;;;;3.40;3.17;;;;;;;5.50;100.00;147434.28;5154398;27;20209;-60
2023/03/17 04:38:50;;;;;;;3.83;3.53;;;;;;;5.52;100.00;147439.28;5154996;27;20644;-60
2023/03/17 04:41:20;;;;;;;3.00;2.90;;;;;;;5.43;100.00;147416.59;5155025;27;20624;-59
2023/03/17 04:43:47;;;;;;;3.80;3.60;;;;;;;5.33;100.00;147390.22;5154899;27;20209;-60
2023/03/17 04:46:15;;;;;;;3.30;3.10;;;;;;;5.45;100.00;147421.66;5155022;27;20182;-60
2023/03/17 04:48:41;;;;;;;3.87;3.67;;;;;;;5.47;100.00;147426.69;5154840;27;20552;-60
2023/03/17 04:51:09;;;;;;;3.20;3.10;;;;;;;5.50;100.00;147433.00;5154818;27;20666;-60
2023/03/17 04:53:35;;;;;;;3.37;3.17;;;;;;;5.53;100.00;147440.53;5154740;27;20242;-59
2023/03/17 04:56:02;;;;;;;2.87;2.77;;;;;;;5.45;100.00;147421.66;5154694;27;20602;-61
2023/03/17 04:58:31;;;;;;;3.40;3.20;;;;;;;5.59;100.00;147454.41;5154332;27;20232;-60
2023/03/17 05:00:58;;;;;;;2.90;2.80;;;;;;;5.53;100.00;147440.53;5154406;27;20182;-60
2023/03/17 05:03:26;;;;;;;3.17;2.97;;;;;;;5.56;100.00;147448.06;5154682;27;20564;-61
2023/03/17 05:05:53;;;;;;;3.53;3.43;;;;;;;5.54;100.00;147443.06;5154618;27;20201;-60
2023/03/17 05:08:20;;;;;;;3.60;3.30;;;;;;;5.65;100.00;147470.75;5154428;27;20198;-59
2023/03/17 05:10:47;;;;;;;2.90;2.80;;;;;;;5.70;100.00;147482.09;5154332;27;20194;-60
2023/03/17 05:13:15;;;;;;;2.93;2.77;;;;;;;5.29;100.00;147381.41;5154163;27;20186;-61
2023/03/17 05:15:46;;;;;;;3.73;3.53;;;;;;;5.69;100.00;147479.56;5154261;27;20186;-60
2023/03/17 05:18:13;;;;;;;3.55;3.30;;;;;;;5.79;100.00;147504.75;5111813;27;1207071;-60
2023/03/17 05:20:40;;;;;;;3.47;3.17;;;;;;;5.80;100.00;147508.53;5155308;27;20182;-61
2023/03/17 05:23:10;;;;;;;3.50;3.30;;;;;;;5.50;100.00;147433.00;5155336;27;20185;-60
2023/03/17 05:25:37;;;;;;;4.07;3.43;;;;;;;5.78;100.00;147503.47;5155773;27;20182;-60
2023/03/17 05:28:04;;;;;;;3.27;3.07;;;;;;;5.63;100.00;147465.75;5154829;27;20182;-59
2023/03/17 05:30:31;;;;;;;3.50;3.10;;;;;;;5.78;100.00;147502.22;5155188;27;20190;-59
2023/03/17 05:33:00;;;;;;;4.53;2.93;;;;;;;5.63;100.00;147465.75;5154855;27;20182;-60
2023/03/17 05:35:27;;;;;;;3.30;3.00;;;;;;;5.61;100.00;147459.41;5154657;27;20178;-60
2023/03/17 05:37:55;;;;;;;5.53;3.20;;;;;;;5.76;100.00;147498.47;5154955;27;20656;-60
2023/03/17 05:40:23;;;;;;;3.40;3.20;;;;;;;5.79;100.00;147506.00;5154865;27;20182;-60
2023/03/17 05:42:50;;;;;;;5.80;2.93;;;;;;;5.93;100.00;147541.34;5154831;27;20246;-60
2023/03/17 05:45:18;;;;;;;6.33;3.33;;;;;;;5.90;100.00;147533.75;5154679;27;20189;-60
2023/03/17 05:47:45;;;;;;;5.73;3.33;;;;;;;6.17;100.00;147599.25;5153765;27;20182;-60
2023/03/17 05:50:13;;;;;;;3.63;3.33;;;;;;;6.16;100.00;147596.72;5154825;27;20598;-60
2023/03/17 05:52:40;;;;;;;12.63;4.40;;;;;;;6.20;100.00;147608.03;5154596;27;20182;-60
2023/03/17 05:55:08;;;;;;;5.67;3.07;;;;;;;6.39;100.00;147654.66;5154563;27;20186;-60
2023/03/17 05:57:35;;;;;;;10.03;4.43;;;;;;;6.43;100.00;147664.75;5154265;27;20214;-59
2023/03/17 06:00:04;;;;;;;4.27;3.97;;;;;;;6.44;100.00;147667.28;5154632;27;20273;-60
2023/03/17 06:02:31;;;;;;;4.00;3.67;;;;;;;6.45;100.00;147668.53;5154103;27;20241;-60
2023/03/17 06:04:58;;;;;;;8.97;4.10;;;;;;;6.60;100.00;147706.31;5154011;27;20629;-59
2023/03/17 06:07:26;;;;;;;41.07;7.43;;;;;;;6.68;100.00;147727.75;5154307;27;20561;-60
2023/03/17 06:09:53;;;;;;;4.03;3.33;;;;;;;6.63;100.00;147715.13;5154259;27;20182;-60
2023/03/17 06:12:20;;;;;;;3.70;3.40;;;;;;;6.69;100.00;147730.28;5154458;27;20190;-61
2023/03/17 06:14:47;;;;;;;8.57;3.97;;;;;;;6.77;100.00;147750.44;5154205;27;20607;-60
2023/03/17 06:17:14;;;;;;;8.70;4.13;;;;;;;6.74;100.00;147741.63;5153467;27;20233;-61
2023/03/17 06:19:41;;;;;;;24.43;6.83;;;;;;;6.72;100.00;147736.56;5153648;27;20189;-60
2023/03/17 06:22:08;;;;;;;3.80;3.47;;;;;;;6.59;100.00;147705.06;5154112;27;20549;-60
2023/03/17 06:24:37;;;;;;;4.77;3.73;;;;;;;6.61;100.00;147710.13;5154230;27;20537;-61
2023/03/17 06:27:04;;;;;;;4.33;3.00;;;;;;;6.56;100.00;147697.50;5135509;27;20178;-60
2023/03/17 06:29:31;;;;;;;4.83;3.60;;;;;;;6.64;100.00;147716.41;5153831;27;20181;-60
2023/03/17 06:31:58;;;;;;;9.80;3.67;;;;;;;6.75;100.00;147745.34;5153836;27;20182;-60
2023/03/17 06:34:25;;;;;;;8.43;3.83;;;;;;;6.87;100.00;147774.38;5153416;27;20193;-60
2023/03/17 06:36:52;;;;;;;3.20;2.80;;;;;;;6.84;100.00;147768.06;5153300;27;20297;-61
2023/03/17 06:39:19;;;;;;;8.23;3.10;;;;;;;6.77;100.00;147750.44;5154483;27;20186;-58
2023/03/17 06:41:48;;;;;;;5.90;3.57;;;;;;;6.76;100.00;147747.91;5153563;27;20277;-60
2023/03/17 06:44:16;;;;;;;2.40;2.30;;;;;;;6.59;100.00;147705.06;5153362;27;20186;-60
2023/03/17 06:46:43;;;;;;;24.97;4.70;;;;;;;6.83;100.00;147765.50;5153327;27;20204;-59
2023/03/17 06:49:12;;;;;;;3.50;2.70;;;;;;;6.71;100.00;147734.00;5134988;27;20296;-59
2023/03/17 06:51:39;;;;;;;5.13;3.43;;;;;;;6.95;100.00;147794.53;5153722;27;20220;-59
2023/03/17 06:54:06;;;;;;;20.83;4.23;;;;;;;6.90;100.00;147781.94;5153317;27;20281;-59
2023/03/17 06:56:35;;;;;;;2.70;2.60;;;;;;;6.92;100.00;147786.94;5153555;27;20201;-59
2023/03/17 06:59:04;;;;;;;3.67;3.17;;;;;;;6.80;100.00;147757.97;5153277;27;20572;-59
2023/03/17 07:01:31;;;;;;;2.80;2.60;;;;;;;6.77;100.00;147750.44;5152803;27;20713;-58
2023/03/17 07:04:01;;;;;;;3.23;2.90;;;;;;;6.89;100.00;147779.41;5153424;27;20646;-60
2023/03/17 07:06:28;;;;;;;3.17;2.87;;;;;;;6.91;100.00;147784.47;5153364;27;20178;-59
2023/03/17 07:09:00;;;;;;;4.00;3.60;;;;;;;6.95;100.00;147793.28;5153006;27;20182;-59
2023/03/17 07:11:29;;;;;;;3.23;3.03;;;;;;;6.99;100.00;147803.34;5153212;27;20178;-61
2023/03/17 07:13:56;;;;;;;13.40;3.20;;;;;;;7.09;100.00;147828.53;5153228;27;20198;-58
2023/03/17 07:16:25;;;;;;;16.33;4.20;;;;;;;7.08;100.00;147826.03;5152429;27;20225;-58
2023/03/17 07:18:52;;;;;;;3.30;3.10;;;;;;;6.99;100.00;147803.34;5134712;27;20185;-60
2023/03/17 07:21:19;;;;;;;6.77;3.67;;;;;;;6.90;100.00;147781.94;5153184;27;20589;-59
2023/03/17 07:23:46;;;;;;;4.07;3.07;;;;;;;6.91;100.00;147783.19;5152894;27;20182;-59
2023/03/17 07:26:13;;;;;;;5.10;3.00;;;;;;;7.11;100.00;147833.59;5153119;27;20182;-60
2023/03/17 07:28:40;;;;;;;3.67;3.33;;;;;;;7.12;100.00;147837.41;5152462;27;20273;-59
2023/03/17 07:31:08;;;;;;;3.57;3.30;;;;;;;7.03;100.00;147814.69;5153074;27;20182;-60
2023/03/17 07:33:37;;;;;;;2.87;2.67;;;;;;;7.07;100.00;147824.78;5146542;27;20229;-59
2023/03/17 07:36:06;;;;;;;7.00;3.30;;;;;;;7.04;100.00;147817.22;5151922;27;20186;-59
2023/03/17 07:38:33;;;;;;;2.87;2.70;;;;;;;6.92;100.00;147786.94;5139277;27;20207;-60
2023/03/17 07:41:03;;;;;;;18.73;4.87;;;;;;;7.01;100.00;147808.38;5132303;28;20185;-60
2023/03/17 07:43:30;;;;;;;10.13;2.97;;;;;;;7.13;100.00;147838.66;5132037;28;20187;-59
2023/03/17 07:45:57;;;;;;;6.23;3.90;;;;;;;7.31;100.00;147884.00;5132430;28;20210;-60
2023/03/17 07:48:24;;;;;;;4.17;3.17;;;;;;;7.43;100.00;147914.25;5114304;28;20646;-60
2023/03/17 07:50:53;;;;;;;6.83;2.53;;;;;;;7.10;100.00;147832.31;5132175;28;20198;-58
2023/03/17 07:53:20;;;;;;;3.40;2.17;;;;;;;7.30;100.00;147881.47;5132088;28;20183;-60
2023/03/17 07:55:47;;;;;;;3.00;2.80;;;;;;;7.56;100.00;147947.03;5113806;28;20187;-59
2023/03/17 07:58:14;;;;;;;5.90;2.77;;;;;;;7.75;100.00;147993.72;5132006;28;20206;-58
2023/03/17 08:00:40;;;;;;;3.97;3.50;;;;;;;7.66;100.00;147971.00;5132055;28;20644;-59
2023/03/17 08:03:08;;;;;;;2.70;2.20;;;;;;;7.40;100.00;147906.72;5131914;28;20322;-59
2023/03/17 08:05:35;;;;;;;2.93;2.73;;;;;;;7.64;100.00;147967.22;5132301;28;20186;-60
2023/03/17 08:08:04;;;;;;;2.20;2.10;;;;;;;7.66;100.00;147972.28;5113578;28;20187;-59
2023/03/17 08:10:31;;;;;;;2.33;2.13;;;;;;;7.64;100.00;147967.22;5134572;27;20285;-60
2023/03/17 08:12:57;;;;;;;8.50;2.60;;;;;;;7.64;100.00;147967.22;5135361;27;20198;-60
2023/03/17 08:15:24;;;;;;;1.87;1.77;;;;;;;7.73;100.00;147988.66;5135839;27;20668;-60
2023/03/17 08:17:52;;;;;;;2.20;2.10;;;;;;;7.54;100.00;147940.75;5080168;27;20270;-59
2023/03/17 08:20:19;;;;;;;2.20;2.00;;;;;;;7.63;100.00;147964.72;5051255;28;20284;-59
2023/03/17 08:22:46;;;;;;;1.77;1.67;;;;;;;7.68;100.00;147977.31;5051054;28;20258;-59
2023/03/17 08:25:14;;;;;;;2.67;2.53;;;;;;;7.87;100.00;148023.97;5051312;28;20185;-60
2023/03/17 08:27:41;;;;;;;1.90;1.80;;;;;;;7.96;100.00;148045.44;5051050;28;20547;-59
2023/03/17 08:30:10;;;;;;;7.13;3.60;;;;;;;8.15;100.00;148093.34;5051103;28;20189;-60
2023/03/17 08:32:36;;;;;;;2.17;1.97;;;;;;;8.23;100.00;148113.56;5050555;28;20201;-58
2023/03/17 08:35:05;;;;;;;5.60;2.43;;;;;;;8.29;100.00;148128.72;5050870;28;20185;-59
2023/03/17 08:37:32;;;;;;;4.90;2.30;;;;;;;8.05;100.00;148068.13;5050886;28;20213;-59
2023/03/17 08:39:59;;;;;;;6.00;2.00;;;;;;;8.28;100.00;148126.16;5051048;28;20212;-59
2023/03/17 08:42:28;;;;;;;4.77;1.97;;;;;;;8.37;100.00;148147.63;5051517;28;20185;-59
2023/03/17 08:44:54;;;;;;;5.70;2.77;;;;;;;8.42;100.00;148161.53;5050783;28;20185;-59
2023/03/17 08:47:22;;;;;;;1.67;1.57;;;;;;;8.23;100.00;148114.78;5050847;28;20182;-59
2023/03/17 08:49:49;;;;;;;2.10;2.00;;;;;;;8.36;100.00;148145.16;5050130;28;20240;-59
2023/03/17 08:52:16;;;;;;;2.00;1.90;;;;;;;8.55;100.00;148194.34;5032597;28;20284;-58
2023/03/17 08:54:43;;;;;;;6.87;2.83;;;;;;;8.62;100.00;148212.00;5050155;28;20181;-59
2023/03/17 08:57:10;;;;;;;7.17;2.70;;;;;;;8.71;100.00;148233.47;5050519;27;20300;-59
2023/03/17 08:59:39;;;;;;;2.03;1.93;;;;;;;8.70;100.00;148232.19;5050275;28;20186;-59
2023/03/17 09:02:06;;;;;;;3.30;1.50;;;;;;;8.57;100.00;148198.16;5050318;28;20212;-59
2023/03/17 09:04:33;;;;;;;2.50;1.70;;;;;;;8.83;100.00;148263.75;5050758;28;20657;-60
2023/03/17 09:07:00;;;;;;;4.70;1.97;;;;;;;8.98;100.00;148300.38;5049774;28;20276;-58
2023/03/17 09:09:29;;;;;;;2.07;1.97;;;;;;;9.02;100.00;148310.47;5050236;28;20249;-59
2023/03/17 09:11:56;;;;;;;10.03;3.77;;;;;;;8.95;100.00;148294.09;5050242;28;20190;-61
2023/03/17 09:14:23;;;;;;;3.70;1.80;;;;;;;8.90;100.00;148280.19;5049887;28;20200;-63
2023/03/17 09:16:52;;;;;;;2.40;1.43;;;;;;;8.32;100.00;148136.28;5049775;27;20715;-59
2023/03/17 09:19:19;;;;;;;1.57;1.50;;;;;;;8.33;100.00;148137.56;5049944;27;20200;-61
2023/03/17 09:21:46;;;;;;;1.23;1.20;;;;;;;8.56;100.00;148196.88;5048377;28;20190;-59
2023/03/17 09:24:13;;;;;;;3.10;2.17;;;;;;;8.52;100.00;148185.53;5050167;28;20190;-58
2023/03/17 09:26:40;;;;;;;2.30;2.20;;;;;;;8.52;100.00;148186.78;5050408;28;20254;-59
2023/03/17 09:29:08;;;;;;;2.20;1.90;;;;;;;8.82;100.00;148260.00;5050477;28;20186;-59
2023/03/17 09:31:36;;;;;;;13.93;4.13;;;;;;;8.99;100.00;148302.91;5050275;28;20216;-59
2023/03/17 09:34:05;;;;;;;14.30;3.60;;;;;;;9.24;100.00;148366.03;5049818;28;20185;-60
2023/03/17 09:36:33;;;;;;;5.83;2.30;;;;;;;9.21;100.00;148358.44;5050042;28;20280;-59
2023/03/17 09:39:00;;;;;;;21.80;4.43;;;;;;;9.29;100.00;148378.66;5049867;28;20285;-59
2023/03/17 09:41:52;;;;;;;2.80;2.07;;;;;;;9.47;100.00;148424.09;5050108;28;20182;-58
2023/03/17 09:44:44;;;;;;;4.07;2.03;;;;;;;9.64;100.00;148467.03;5049897;28;20190;-58
2023/03/17 09:47:33;;;;;;;10.33;3.43;;;;;;;9.73;100.00;148487.25;5032815;28;20209;-59
2023/03/17 09:50:04;;;;;;;4.00;2.27;;;;;;;9.86;100.00;148521.38;5029970;28;20192;-59
2023/03/17 09:52:33;;;;;;;2.70;1.80;;;;;;;10.06;100.00;148570.63;5029922;28;20591;-59
2023/03/17 09:55:03;;;;;;;3.40;2.33;;;;;;;10.02;100.00;148560.50;5029810;28;20632;-59
2023/03/17 09:57:33;;;;;;;2.73;2.10;;;;;;;10.22;100.00;148611.16;5029435;28;20565;-60
2023/03/17 10:00:05;;;;;;;2.57;2.47;;;;;;;10.52;100.00;148686.94;5029486;28;20186;-59
2023/03/17 10:02:34;;;;;;;1.90;1.80;;;;;;;11.02;100.00;148809.59;5029803;28;20198;-59
2023/03/17 10:05:13;;;;;;;3.80;2.47;;;;;;;11.81;95.71;149008.22;5029414;28;20190;-60
2023/03/17 10:07:45;;;;;;;3.43;2.00;;;;;;;11.78;93.60;149000.63;5029536;28;20637;-59
2023/03/17 10:10:22;;;;;;;4.97;2.03;;;;;;;11.43;90.32;148914.56;5029642;28;20194;-61
2023/03/17 10:12:58;;;;;;;4.10;1.90;;;;;;;11.03;95.24;148813.41;5029360;28;20623;-61
2023/03/17 10:15:31;;;;;;;1.80;1.73;;;;;;;10.88;97.97;148775.44;5029362;28;20189;-59
2023/03/17 10:17:59;;;;;;;2.67;2.43;;;;;;;11.19;100.00;148853.84;5116380;27;20325;-59
2023/03/17 10:20:32;;;;;;;3.63;2.13;;;;;;;11.34;100.00;148891.78;5153809;27;20190;-60
2023/03/17 10:23:02;;;;;;;7.43;2.53;;;;;;;11.34;98.59;148890.50;5153620;27;20217;-59
2023/03/17 10:25:31;;;;;;;2.33;2.23;;;;;;;11.77;99.17;148999.38;5153536;27;20186;-58
2023/03/17 10:28:02;;;;;;;3.03;2.70;;;;;;;11.94;97.13;149039.84;5153608;27;20194;-59
2023/03/17 10:30:32;;;;;;;7.77;2.30;;;;;;;11.97;94.30;149048.69;5153189;27;20178;-59
2023/03/17 10:33:01;;;;;;;3.90;2.27;;;;;;;11.87;94.76;149024.69;5153095;27;20233;-59
2023/03/17 10:35:34;;;;;;;2.10;2.00;;;;;;;12.19;96.43;149103.13;5153073;27;20177;-59
2023/03/17 10:38:02;;;;;;;3.70;2.50;;;;;;;12.71;89.45;149234.78;5153277;27;20259;-59
2023/03/17 10:40:31;;;;;;;2.70;2.23;;;;;;;12.82;87.46;149262.63;5153428;27;20280;-58
2023/03/17 10:43:06;;;;;;;2.40;2.30;;;;;;;12.84;88.76;149266.44;5153140;27;20198;-59
2023/03/17 10:45:37;;;;;;;2.60;1.80;;;;;;;13.80;81.99;149507.16;5134321;27;20201;-59
2023/03/17 10:48:09;;;;;;;2.20;2.10;;;;;;;15.88;74.13;150028.50;5153103;27;20178;-59
2023/03/17 10:50:40;;;;;;;2.27;2.17;;;;;;;15.59;67.12;149956.19;5153100;27;20182;-59
2023/03/17 10:53:09;;;;;;;3.23;2.40;;;;;;;15.69;68.39;149980.31;5152862;27;20209;-59
2023/03/17 10:55:43;;;;;;;4.87;2.37;;;;;;;15.53;66.52;149941.00;5153497;27;20619;-59
2023/03/17 10:58:15;;;;;;;2.70;2.60;;;;;;;15.52;64.58;149938.44;5152725;27;20300;-59
2023/03/17 11:00:55;;;;;;;4.60;2.10;;;;;;;14.88;67.63;149778.53;5153138;27;20182;-58
2023/03/17 11:03:25;;;;;;;6.20;2.80;;;;;;;14.07;73.48;149574.34;5153649;27;20555;-60
2023/03/17 11:06:00;;;;;;;3.20;2.97;;;;;;;13.87;76.40;149523.66;5153560;27;20319;-60
2023/03/17 11:08:31;;;;;;;11.37;3.70;;;;;;;13.86;78.80;149522.41;5153308;27;20188;-60
2023/03/17 11:10:58;;;;;;;4.67;2.20;;;;;;;14.61;72.29;149710.03;5152942;27;20193;-60
2023/03/17 11:13:29;;;;;;;8.93;4.03;;;;;;;14.87;69.72;149774.72;5153343;27;20182;-59
2023/03/17 11:16:09;;;;;;;4.03;3.17;;;;;;;15.16;67.93;149847.00;5152835;27;20208;-64
2023/03/17 11:18:38;;;;;;;3.63;2.30;;;;;;;14.71;71.33;149734.16;5152816;27;20229;-59
2023/03/17 11:21:10;;;;;;;2.47;2.30;;;;;;;14.75;72.84;149744.28;5153046;27;20181;-58
2023/03/17 11:23:53;;;;;;;3.27;2.67;;;;;;;14.04;71.35;149568.03;5152942;27;20196;-59
2023/03/17 11:26:37;;;;;;;6.70;3.07;;;;;;;13.48;74.45;149426.09;5151141;27;20202;-58
2023/03/17 11:29:21;;;;;;;2.97;2.70;;;;;;;13.10;79.26;149331.03;5135420;27;20180;-59
2023/03/17 11:32:09;;;;;;;3.57;2.40;;;;;;;12.84;82.29;149266.44;5152771;27;20182;-60